sensor_id;sensor_type;location;lat;lon;timestamp;temperature;humidity
26505;DHT22;19493;48.042;7.584;2022-12-07T00:01:09;4.00;99.90
26505;DHT22;19493;48.042;7.584;2022-12-07T00:03:37;4.10;99.90
26505;DHT22;19493;48.042;7.584;2022-12-07T00:06:04;4.10;99.90
26505;DHT22;19493;48.042;7.584;2022-12-07T00:08:31;4.00;99.90
26505;DHT22;19493;48.042;7.584;2022-12-07T00:11:04;4.10;99.90
26505;DHT22;19493;48.042;7.584;2022-12-07T00:13:30;4.10;99.90
26505;DHT22;19493;48.042;7.584;2022-12-07T00:15:59;4.10;99.90
26505;DHT22;19493;48.042;7.584;2022-12-07T00:18:25;4.10;99.90
26505;DHT22;19493;48.042;7.584;2022-12-07T00:20:50;4.10;99.90
26505;DHT22;19493;48.042;7.584;2022-12-07T00:23:16;4.10;99.90
26505;DHT22;19493;48.042;7.584;2022-12-07T00:25:41;4.10;99.90
26505;DHT22;19493;48.042;7.584;2022-12-07T00:28:07;4.10;99.90
26505;DHT22;19493;48.042;7.584;2022-12-07T00:30:34;4.10;99.90
26505;DHT22;19493;48.042;7.584;2022-12-07T00:33:00;4.10;99.90
26505;DHT22;19493;48.042;7.584;2022-12-07T00:35:25;4.10;99.90
26505;DHT22;19493;48.042;7.584;2022-12-07T00:37:51;4.10;99.90
26505;DHT22;19493;48.042;7.584;2022-12-07T00:40:17;4.10;99.90
26505;DHT22;19493;48.042;7.584;2022-12-07T00:42:42;4.10;99.90
26505;DHT22;19493;48.042;7.584;2022-12-07T00:45:08;4.10;99.90
26505;DHT22;19493;48.042;7.584;2022-12-07T00:47:36;4.10;99.90
26505;DHT22;19493;48.042;7.584;2022-12-07T00:50:02;4.20;99.90
26505;DHT22;19493;48.042;7.584;2022-12-07T00:52:28;4.20;99.90
26505;DHT22;19493;48.042;7.584;2022-12-07T00:54:53;4.20;99.90
26505;DHT22;19493;48.042;7.584;2022-12-07T00:57:19;4.20;99.90
26505;DHT22;19493;48.042;7.584;2022-12-07T00:59:44;4.20;99.90
26505;DHT22;19493;48.042;7.584;2022-12-07T01:02:10;4.20;99.90
26505;DHT22;19493;48.042;7.584;2022-12-07T01:04:35;4.20;99.90
26505;DHT22;19493;48.042;7.584;2022-12-07T01:07:01;4.20;99.90
26505;DHT22;19493;48.042;7.584;2022-12-07T01:09:26;4.20;99.90
26505;DHT22;19493;48.042;7.584;2022-12-07T01:11:52;4.20;99.90
26505;DHT22;19493;48.042;7.584;2022-12-07T01:14:17;4.20;99.90
26505;DHT22;19493;48.042;7.584;2022-12-07T01:16:43;4.20;99.90
26505;DHT22;19493;48.042;7.584;2022-12-07T01:19:08;4.10;99.90
26505;DHT22;19493;48.042;7.584;2022-12-07T01:21:35;4.10;99.90
26505;DHT22;19493;48.042;7.584;2022-12-07T01:24:04;4.10;99.90
26505;DHT22;19493;48.042;7.584;2022-12-07T01:26:30;4.10;99.90
26505;DHT22;19493;48.042;7.584;2022-12-07T01:28:56;4.10;99.90
26505;DHT22;19493;48.042;7.584;2022-12-07T01:31:25;4.10;99.90
26505;DHT22;19493;48.042;7.584;2022-12-07T01:33:54;4.10;99.90
26505;DHT22;19493;48.042;7.584;2022-12-07T01:36:25;4.00;99.90
26505;DHT22;19493;48.042;7.584;2022-12-07T01:38:57;4.00;99.90
26505;DHT22;19493;48.042;7.584;2022-12-07T01:41:26;4.00;99.90
26505;DHT22;19493;48.042;7.584;2022-12-07T01:46:39;4.00;99.90
26505;DHT22;19493;48.042;7.584;2022-12-07T01:49:08;4.00;99.90
26505;DHT22;19493;48.042;7.584;2022-12-07T01:51:34;4.00;99.90
26505;DHT22;19493;48.042;7.584;2022-12-07T01:54:02;4.00;99.90
26505;DHT22;19493;48.042;7.584;2022-12-07T01:56:29;4.00;99.90
26505;DHT22;19493;48.042;7.584;2022-12-07T01:58:56;4.00;99.90
26505;DHT22;19493;48.042;7.584;2022-12-07T02:01:23;3.90;99.90
26505;DHT22;19493;48.042;7.584;2022-12-07T02:03:48;3.90;99.90
26505;DHT22;19493;48.042;7.584;2022-12-07T02:06:19;3.90;99.90
26505;DHT22;19493;48.042;7.584;2022-12-07T02:08:46;3.90;99.90
26505;DHT22;19493;48.042;7.584;2022-12-07T02:11:12;3.90;99.90
26505;DHT22;19493;48.042;7.584;2022-12-07T02:13:40;3.90;99.90
26505;DHT22;19493;48.042;7.584;2022-12-07T02:19:23;4.00;99.90
26505;DHT22;19493;48.042;7.584;2022-12-07T02:30:10;3.90;99.90
26505;DHT22;19493;48.042;7.584;2022-12-07T02:35:24;3.90;99.90
26505;DHT22;19493;48.042;7.584;2022-12-07T02:37:58;3.90;99.90
26505;DHT22;19493;48.042;7.584;2022-12-07T02:43:12;3.90;99.90
26505;DHT22;19493;48.042;7.584;2022-12-07T02:45:40;3.90;99.90
26505;DHT22;19493;48.042;7.584;2022-12-07T02:48:08;3.90;99.90
26505;DHT22;19493;48.042;7.584;2022-12-07T02:50:35;3.90;99.90
26505;DHT22;19493;48.042;7.584;2022-12-07T02:53:00;3.90;99.90
26505;DHT22;19493;48.042;7.584;2022-12-07T02:55:31;3.90;99.90
26505;DHT22;19493;48.042;7.584;2022-12-07T02:58:36;3.90;99.90
26505;DHT22;19493;48.042;7.584;2022-12-07T03:06:56;3.80;99.90
26505;DHT22;19493;48.042;7.584;2022-12-07T03:09:38;3.80;99.90
26505;DHT22;19493;48.042;7.584;2022-12-07T03:12:17;3.80;99.90
26505;DHT22;19493;48.042;7.584;2022-12-07T03:14:55;3.80;99.90
26505;DHT22;19493;48.042;7.584;2022-12-07T03:17:27;3.80;99.90
26505;DHT22;19493;48.042;7.584;2022-12-07T03:19:58;3.80;99.90
26505;DHT22;19493;48.042;7.584;2022-12-07T03:22:28;3.80;99.90
26505;DHT22;19493;48.042;7.584;2022-12-07T03:24:58;3.80;99.90
26505;DHT22;19493;48.042;7.584;2022-12-07T03:30:12;3.80;99.90
26505;DHT22;19493;48.042;7.584;2022-12-07T03:32:41;3.80;99.90
26505;DHT22;19493;48.042;7.584;2022-12-07T03:35:26;3.80;99.90
26505;DHT22;19493;48.042;7.584;2022-12-07T03:38:14;3.70;99.90
26505;DHT22;19493;48.042;7.584;2022-12-07T03:41:00;3.70;99.90
26505;DHT22;19493;48.042;7.584;2022-12-07T03:43:29;3.70;99.90
26505;DHT22;19493;48.042;7.584;2022-12-07T03:49:25;3.60;99.90
26505;DHT22;19493;48.042;7.584;2022-12-07T03:56:49;3.40;99.90
26505;DHT22;19493;48.042;7.584;2022-12-07T03:59:16;3.40;99.90
26505;DHT22;19493;48.042;7.584;2022-12-07T04:01:52;3.30;99.90
26505;DHT22;19493;48.042;7.584;2022-12-07T04:04:19;3.30;99.90
26505;DHT22;19493;48.042;7.584;2022-12-07T04:06:44;3.20;99.90
26505;DHT22;19493;48.042;7.584;2022-12-07T04:09:10;3.20;99.90
26505;DHT22;19493;48.042;7.584;2022-12-07T04:11:35;3.10;99.90
26505;DHT22;19493;48.042;7.584;2022-12-07T04:14:01;3.00;99.90
26505;DHT22;19493;48.042;7.584;2022-12-07T04:16:49;3.00;99.90
26505;DHT22;19493;48.042;7.584;2022-12-07T04:19:17;3.00;99.90
26505;DHT22;19493;48.042;7.584;2022-12-07T04:21:43;3.00;99.90
26505;DHT22;19493;48.042;7.584;2022-12-07T04:24:09;3.00;99.90
26505;DHT22;19493;48.042;7.584;2022-12-07T04:26:35;3.00;99.90
26505;DHT22;19493;48.042;7.584;2022-12-07T04:29:01;3.00;99.90
26505;DHT22;19493;48.042;7.584;2022-12-07T04:31:26;3.00;99.90
26505;DHT22;19493;48.042;7.584;2022-12-07T04:33:52;3.00;99.90
26505;DHT22;19493;48.042;7.584;2022-12-07T04:36:17;3.00;99.90
26505;DHT22;19493;48.042;7.584;2022-12-07T04:38:45;2.90;99.90
26505;DHT22;19493;48.042;7.584;2022-12-07T04:41:10;2.90;99.90
26505;DHT22;19493;48.042;7.584;2022-12-07T04:43:36;2.90;99.90
26505;DHT22;19493;48.042;7.584;2022-12-07T04:46:01;2.90;99.90
26505;DHT22;19493;48.042;7.584;2022-12-07T04:48:28;2.90;99.90
26505;DHT22;19493;48.042;7.584;2022-12-07T04:50:54;2.90;99.90
26505;DHT22;19493;48.042;7.584;2022-12-07T04:53:19;2.80;99.90
26505;DHT22;19493;48.042;7.584;2022-12-07T04:55:46;2.80;99.90
26505;DHT22;19493;48.042;7.584;2022-12-07T04:58:12;2.70;99.90
26505;DHT22;19493;48.042;7.584;2022-12-07T05:00:38;2.70;99.90
26505;DHT22;19493;48.042;7.584;2022-12-07T05:03:04;2.60;99.90
26505;DHT22;19493;48.042;7.584;2022-12-07T05:05:30;2.60;99.90
26505;DHT22;19493;48.042;7.584;2022-12-07T05:07:55;2.60;99.90
26505;DHT22;19493;48.042;7.584;2022-12-07T05:10:21;2.50;99.90
26505;DHT22;19493;48.042;7.584;2022-12-07T05:12:46;2.60;99.90
26505;DHT22;19493;48.042;7.584;2022-12-07T05:15:13;2.60;99.90
26505;DHT22;19493;48.042;7.584;2022-12-07T05:17:39;2.70;99.90
26505;DHT22;19493;48.042;7.584;2022-12-07T05:20:05;2.70;99.90
26505;DHT22;19493;48.042;7.584;2022-12-07T05:22:31;2.70;99.90
26505;DHT22;19493;48.042;7.584;2022-12-07T05:24:57;2.80;99.90
26505;DHT22;19493;48.042;7.584;2022-12-07T05:27:23;2.80;99.90
26505;DHT22;19493;48.042;7.584;2022-12-07T05:29:50;2.80;99.90
26505;DHT22;19493;48.042;7.584;2022-12-07T05:32:15;2.80;99.90
26505;DHT22;19493;48.042;7.584;2022-12-07T05:34:41;2.70;99.90
26505;DHT22;19493;48.042;7.584;2022-12-07T05:37:07;2.60;99.90
26505;DHT22;19493;48.042;7.584;2022-12-07T05:39:32;2.50;99.90
26505;DHT22;19493;48.042;7.584;2022-12-07T05:41:58;2.40;99.90
26505;DHT22;19493;48.042;7.584;2022-12-07T05:44:40;2.30;99.90
26505;DHT22;19493;48.042;7.584;2022-12-07T05:47:06;2.20;99.90
26505;DHT22;19493;48.042;7.584;2022-12-07T05:49:32;2.20;99.90
26505;DHT22;19493;48.042;7.584;2022-12-07T05:51:57;2.10;99.90
26505;DHT22;19493;48.042;7.584;2022-12-07T05:54:23;2.10;99.90
26505;DHT22;19493;48.042;7.584;2022-12-07T05:56:49;1.90;99.90
26505;DHT22;19493;48.042;7.584;2022-12-07T05:59:14;1.90;99.90
26505;DHT22;19493;48.042;7.584;2022-12-07T06:04:17;1.70;99.90
26505;DHT22;19493;48.042;7.584;2022-12-07T06:06:43;1.70;99.90
26505;DHT22;19493;48.042;7.584;2022-12-07T06:09:08;1.70;99.90
26505;DHT22;19493;48.042;7.584;2022-12-07T06:11:34;1.70;99.90
26505;DHT22;19493;48.042;7.584;2022-12-07T06:14:18;1.60;99.90
26505;DHT22;19493;48.042;7.584;2022-12-07T06:16:44;1.40;99.90
26505;DHT22;19493;48.042;7.584;2022-12-07T06:19:10;1.30;99.90
26505;DHT22;19493;48.042;7.584;2022-12-07T06:21:35;1.20;99.90
26505;DHT22;19493;48.042;7.584;2022-12-07T06:24:01;1.20;99.90
26505;DHT22;19493;48.042;7.584;2022-12-07T06:26:27;1.20;99.90
26505;DHT22;19493;48.042;7.584;2022-12-07T06:28:52;1.10;99.90
26505;DHT22;19493;48.042;7.584;2022-12-07T06:31:18;1.00;99.90
26505;DHT22;19493;48.042;7.584;2022-12-07T06:33:44;0.90;99.90
26505;DHT22;19493;48.042;7.584;2022-12-07T06:36:10;0.80;99.90
26505;DHT22;19493;48.042;7.584;2022-12-07T06:38:36;0.70;99.90
26505;DHT22;19493;48.042;7.584;2022-12-07T06:41:01;0.70;99.90
26505;DHT22;19493;48.042;7.584;2022-12-07T06:43:27;0.70;99.90
26505;DHT22;19493;48.042;7.584;2022-12-07T06:45:53;0.60;99.90
26505;DHT22;19493;48.042;7.584;2022-12-07T06:48:18;0.50;99.90
26505;DHT22;19493;48.042;7.584;2022-12-07T06:50:45;0.50;99.90
26505;DHT22;19493;48.042;7.584;2022-12-07T06:53:10;0.60;99.90
26505;DHT22;19493;48.042;7.584;2022-12-07T06:55:36;0.70;99.90
26505;DHT22;19493;48.042;7.584;2022-12-07T06:58:02;0.70;99.90
26505;DHT22;19493;48.042;7.584;2022-12-07T07:00:28;0.60;99.90
26505;DHT22;19493;48.042;7.584;2022-12-07T07:02:54;0.40;99.90
26505;DHT22;19493;48.042;7.584;2022-12-07T07:05:19;0.40;99.90
26505;DHT22;19493;48.042;7.584;2022-12-07T07:07:48;0.30;99.90
26505;DHT22;19493;48.042;7.584;2022-12-07T07:10:13;0.30;99.90
26505;DHT22;19493;48.042;7.584;2022-12-07T07:12:39;0.20;99.90
26505;DHT22;19493;48.042;7.584;2022-12-07T07:15:05;0.20;99.90
26505;DHT22;19493;48.042;7.584;2022-12-07T07:17:30;0.30;99.90
26505;DHT22;19493;48.042;7.584;2022-12-07T07:19:56;0.40;99.90
26505;DHT22;19493;48.042;7.584;2022-12-07T07:22:21;0.60;99.90
26505;DHT22;19493;48.042;7.584;2022-12-07T07:24:47;0.60;99.90
26505;DHT22;19493;48.042;7.584;2022-12-07T07:27:13;0.70;99.90
26505;DHT22;19493;48.042;7.584;2022-12-07T07:29:38;0.90;99.90
26505;DHT22;19493;48.042;7.584;2022-12-07T07:32:04;1.10;99.90
26505;DHT22;19493;48.042;7.584;2022-12-07T07:34:29;1.20;99.90
26505;DHT22;19493;48.042;7.584;2022-12-07T07:36:55;1.20;99.90
26505;DHT22;19493;48.042;7.584;2022-12-07T07:39:21;1.20;99.90
26505;DHT22;19493;48.042;7.584;2022-12-07T07:41:47;1.10;99.90
26505;DHT22;19493;48.042;7.584;2022-12-07T07:44:13;1.00;99.90
26505;DHT22;19493;48.042;7.584;2022-12-07T07:46:38;0.90;99.90
26505;DHT22;19493;48.042;7.584;2022-12-07T07:49:04;0.80;99.90
26505;DHT22;19493;48.042;7.584;2022-12-07T07:51:30;0.70;99.90
26505;DHT22;19493;48.042;7.584;2022-12-07T07:53:55;0.80;99.90
26505;DHT22;19493;48.042;7.584;2022-12-07T07:56:21;0.80;99.90
26505;DHT22;19493;48.042;7.584;2022-12-07T07:58:46;0.90;99.90
26505;DHT22;19493;48.042;7.584;2022-12-07T08:01:12;1.00;99.90
26505;DHT22;19493;48.042;7.584;2022-12-07T08:03:39;1.10;99.90
26505;DHT22;19493;48.042;7.584;2022-12-07T08:06:05;1.30;99.90
26505;DHT22;19493;48.042;7.584;2022-12-07T08:08:31;1.50;99.90
26505;DHT22;19493;48.042;7.584;2022-12-07T08:10:56;1.70;99.90
26505;DHT22;19493;48.042;7.584;2022-12-07T08:13:25;1.80;99.90
26505;DHT22;19493;48.042;7.584;2022-12-07T08:15:51;2.00;99.90
26505;DHT22;19493;48.042;7.584;2022-12-07T08:18:17;2.20;99.90
26505;DHT22;19493;48.042;7.584;2022-12-07T08:20:42;2.40;99.90
26505;DHT22;19493;48.042;7.584;2022-12-07T08:23:08;2.70;99.90
26505;DHT22;19493;48.042;7.584;2022-12-07T08:25:35;2.90;99.90
26505;DHT22;19493;48.042;7.584;2022-12-07T08:28:01;2.90;99.90
26505;DHT22;19493;48.042;7.584;2022-12-07T08:30:28;2.80;99.90
26505;DHT22;19493;48.042;7.584;2022-12-07T08:32:55;2.80;99.90
26505;DHT22;19493;48.042;7.584;2022-12-07T08:35:21;2.80;99.90
26505;DHT22;19493;48.042;7.584;2022-12-07T08:37:46;2.90;99.90
26505;DHT22;19493;48.042;7.584;2022-12-07T08:40:13;3.30;99.90
26505;DHT22;19493;48.042;7.584;2022-12-07T08:42:44;4.40;99.90
26505;DHT22;19493;48.042;7.584;2022-12-07T08:45:12;6.30;99.90
26505;DHT22;19493;48.042;7.584;2022-12-07T08:47:43;8.10;99.90
26505;DHT22;19493;48.042;7.584;2022-12-07T08:50:11;9.90;99.90
26505;DHT22;19493;48.042;7.584;2022-12-07T08:52:37;11.20;99.90
26505;DHT22;19493;48.042;7.584;2022-12-07T08:55:05;12.10;99.90
26505;DHT22;19493;48.042;7.584;2022-12-07T08:57:32;13.20;99.90
26505;DHT22;19493;48.042;7.584;2022-12-07T08:59:59;13.60;99.90
26505;DHT22;19493;48.042;7.584;2022-12-07T09:02:25;13.90;99.90
26505;DHT22;19493;48.042;7.584;2022-12-07T09:04:51;13.00;99.90
26505;DHT22;19493;48.042;7.584;2022-12-07T09:07:16;12.70;99.90
26505;DHT22;19493;48.042;7.584;2022-12-07T09:09:42;12.20;99.90
26505;DHT22;19493;48.042;7.584;2022-12-07T09:12:08;12.50;99.90
26505;DHT22;19493;48.042;7.584;2022-12-07T09:14:33;12.80;99.90
26505;DHT22;19493;48.042;7.584;2022-12-07T09:17:10;14.00;99.90
26505;DHT22;19493;48.042;7.584;2022-12-07T09:19:36;15.40;99.90
26505;DHT22;19493;48.042;7.584;2022-12-07T09:22:02;15.60;99.90
26505;DHT22;19493;48.042;7.584;2022-12-07T09:24:28;16.10;99.90
26505;DHT22;19493;48.042;7.584;2022-12-07T09:26:53;16.10;99.60
26505;DHT22;19493;48.042;7.584;2022-12-07T09:29:19;15.40;99.10
26505;DHT22;19493;48.042;7.584;2022-12-07T09:31:44;13.90;99.90
26505;DHT22;19493;48.042;7.584;2022-12-07T09:34:10;13.30;99.90
26505;DHT22;19493;48.042;7.584;2022-12-07T09:36:37;13.20;99.90
26505;DHT22;19493;48.042;7.584;2022-12-07T09:39:03;14.40;99.90
26505;DHT22;19493;48.042;7.584;2022-12-07T09:41:30;15.20;98.80
26505;DHT22;19493;48.042;7.584;2022-12-07T09:44:14;16.30;96.80
26505;DHT22;19493;48.042;7.584;2022-12-07T09:46:42;17.20;94.70
26505;DHT22;19493;48.042;7.584;2022-12-07T09:49:14;17.90;91.70
26505;DHT22;19493;48.042;7.584;2022-12-07T09:51:41;18.30;90.00
26505;DHT22;19493;48.042;7.584;2022-12-07T09:54:12;18.70;85.50
26505;DHT22;19493;48.042;7.584;2022-12-07T09:56:38;19.40;82.90
26505;DHT22;19493;48.042;7.584;2022-12-07T09:59:03;20.40;77.40
26505;DHT22;19493;48.042;7.584;2022-12-07T10:01:31;21.10;71.70
26505;DHT22;19493;48.042;7.584;2022-12-07T10:04:11;21.20;68.40
26505;DHT22;19493;48.042;7.584;2022-12-07T10:06:38;21.50;65.50
26505;DHT22;19493;48.042;7.584;2022-12-07T10:09:13;21.70;63.40
26505;DHT22;19493;48.042;7.584;2022-12-07T10:12:08;22.60;59.90
26505;DHT22;19493;48.042;7.584;2022-12-07T10:14:37;23.00;56.70
26505;DHT22;19493;48.042;7.584;2022-12-07T10:17:30;23.10;54.80
26505;DHT22;19493;48.042;7.584;2022-12-07T10:22:37;21.50;53.40
26505;DHT22;19493;48.042;7.584;2022-12-07T10:25:18;19.90;56.80
26505;DHT22;19493;48.042;7.584;2022-12-07T10:27:44;19.50;57.70
26505;DHT22;19493;48.042;7.584;2022-12-07T10:30:22;18.20;58.00
26505;DHT22;19493;48.042;7.584;2022-12-07T10:32:47;18.00;57.20
26505;DHT22;19493;48.042;7.584;2022-12-07T10:35:28;16.90;58.40
26505;DHT22;19493;48.042;7.584;2022-12-07T10:37:56;16.30;60.10
26505;DHT22;19493;48.042;7.584;2022-12-07T10:40:32;15.70;63.30
26505;DHT22;19493;48.042;7.584;2022-12-07T10:52:01;14.70;67.50
26505;DHT22;19493;48.042;7.584;2022-12-07T10:54:43;14.10;68.70
26505;DHT22;19493;48.042;7.584;2022-12-07T10:57:31;14.50;68.60
26505;DHT22;19493;48.042;7.584;2022-12-07T11:02:35;15.40;63.40
26505;DHT22;19493;48.042;7.584;2022-12-07T11:05:06;14.90;62.00
26505;DHT22;19493;48.042;7.584;2022-12-07T11:19:28;11.10;72.80
26505;DHT22;19493;48.042;7.584;2022-12-07T11:21:40;10.70;74.20
26505;DHT22;19493;48.042;7.584;2022-12-07T11:24:18;10.40;74.90
26505;DHT22;19493;48.042;7.584;2022-12-07T11:35:07;10.00;78.30
26505;DHT22;19493;48.042;7.584;2022-12-07T11:37:36;10.10;79.20
26505;DHT22;19493;48.042;7.584;2022-12-07T11:40:33;10.00;79.70
26505;DHT22;19493;48.042;7.584;2022-12-07T11:45:42;10.20;78.80
26505;DHT22;19493;48.042;7.584;2022-12-07T11:50:50;10.20;79.40
26505;DHT22;19493;48.042;7.584;2022-12-07T11:53:31;10.20;80.10
26505;DHT22;19493;48.042;7.584;2022-12-07T11:58:49;10.80;79.90
26505;DHT22;19493;48.042;7.584;2022-12-07T12:04:22;11.50;76.60
26505;DHT22;19493;48.042;7.584;2022-12-07T12:06:50;11.50;76.50
26505;DHT22;19493;48.042;7.584;2022-12-07T12:09:35;11.60;76.40
26505;DHT22;19493;48.042;7.584;2022-12-07T12:12:38;12.00;74.50
26505;DHT22;19493;48.042;7.584;2022-12-07T12:15:18;12.80;72.20
26505;DHT22;19493;48.042;7.584;2022-12-07T12:18:02;13.20;71.80
26505;DHT22;19493;48.042;7.584;2022-12-07T12:20:41;13.50;70.60
26505;DHT22;19493;48.042;7.584;2022-12-07T12:23:18;13.60;69.80
26505;DHT22;19493;48.042;7.584;2022-12-07T12:25:48;13.70;68.30
26505;DHT22;19493;48.042;7.584;2022-12-07T12:28:40;14.80;65.50
26505;DHT22;19493;48.042;7.584;2022-12-07T12:33:51;14.90;65.90
26505;DHT22;19493;48.042;7.584;2022-12-07T12:51:59;11.40;75.20
26505;DHT22;19493;48.042;7.584;2022-12-07T12:54:26;11.20;76.80
26505;DHT22;19493;48.042;7.584;2022-12-07T12:57:15;11.30;76.60
26505;DHT22;19493;48.042;7.584;2022-12-07T12:59:57;11.10;75.10
26505;DHT22;19493;48.042;7.584;2022-12-07T13:02:36;10.90;75.40
26505;DHT22;19493;48.042;7.584;2022-12-07T13:15:51;10.00;79.90
26505;DHT22;19493;48.042;7.584;2022-12-07T13:23:26;9.60;81.30
26505;DHT22;19493;48.042;7.584;2022-12-07T13:26:09;9.50;82.30
26505;DHT22;19493;48.042;7.584;2022-12-07T13:28:42;9.20;83.20
26505;DHT22;19493;48.042;7.584;2022-12-07T13:34:34;8.70;83.80
26505;DHT22;19493;48.042;7.584;2022-12-07T13:39:46;8.30;86.70
26505;DHT22;19493;48.042;7.584;2022-12-07T13:42:38;8.30;87.20
26505;DHT22;19493;48.042;7.584;2022-12-07T13:45:24;8.20;88.30
26505;DHT22;19493;48.042;7.584;2022-12-07T13:48:20;8.10;90.40
26505;DHT22;19493;48.042;7.584;2022-12-07T13:50:57;8.00;90.10
26505;DHT22;19493;48.042;7.584;2022-12-07T13:53:24;7.80;90.30
26505;DHT22;19493;48.042;7.584;2022-12-07T13:55:50;7.80;90.50
26505;DHT22;19493;48.042;7.584;2022-12-07T13:58:16;7.70;91.00
26505;DHT22;19493;48.042;7.584;2022-12-07T14:00:42;7.70;90.90
26505;DHT22;19493;48.042;7.584;2022-12-07T14:05:38;7.60;91.50
26505;DHT22;19493;48.042;7.584;2022-12-07T14:08:04;7.50;91.20
26505;DHT22;19493;48.042;7.584;2022-12-07T14:10:36;7.50;91.50
26505;DHT22;19493;48.042;7.584;2022-12-07T14:15:50;7.20;92.30
26505;DHT22;19493;48.042;7.584;2022-12-07T14:21:24;7.10;92.10
26505;DHT22;19493;48.042;7.584;2022-12-07T14:24:09;7.00;92.80
26505;DHT22;19493;48.042;7.584;2022-12-07T14:26:35;7.00;92.90
26505;DHT22;19493;48.042;7.584;2022-12-07T14:29:20;6.80;93.00
26505;DHT22;19493;48.042;7.584;2022-12-07T14:31:47;6.60;93.30
26505;DHT22;19493;48.042;7.584;2022-12-07T14:34:13;6.50;93.90
26505;DHT22;19493;48.042;7.584;2022-12-07T14:36:38;6.30;94.50
26505;DHT22;19493;48.042;7.584;2022-12-07T14:39:07;6.10;94.90
26505;DHT22;19493;48.042;7.584;2022-12-07T14:41:33;5.90;95.40
26505;DHT22;19493;48.042;7.584;2022-12-07T14:44:22;5.70;96.20
26505;DHT22;19493;48.042;7.584;2022-12-07T14:46:51;5.60;97.00
26505;DHT22;19493;48.042;7.584;2022-12-07T14:49:18;5.40;97.80
26505;DHT22;19493;48.042;7.584;2022-12-07T14:51:45;5.20;98.60
26505;DHT22;19493;48.042;7.584;2022-12-07T14:54:17;5.00;99.30
26505;DHT22;19493;48.042;7.584;2022-12-07T14:56:44;4.80;99.90
26505;DHT22;19493;48.042;7.584;2022-12-07T14:59:11;4.70;99.90
26505;DHT22;19493;48.042;7.584;2022-12-07T15:01:37;4.50;99.90
26505;DHT22;19493;48.042;7.584;2022-12-07T15:04:03;4.40;99.90
26505;DHT22;19493;48.042;7.584;2022-12-07T15:06:29;4.30;99.90
26505;DHT22;19493;48.042;7.584;2022-12-07T15:08:55;4.20;99.90
26505;DHT22;19493;48.042;7.584;2022-12-07T15:11:20;4.00;99.90
26505;DHT22;19493;48.042;7.584;2022-12-07T15:13:46;3.90;99.90
26505;DHT22;19493;48.042;7.584;2022-12-07T15:16:30;3.90;99.90
26505;DHT22;19493;48.042;7.584;2022-12-07T15:18:56;3.80;99.90
26505;DHT22;19493;48.042;7.584;2022-12-07T15:21:21;3.70;99.90
26505;DHT22;19493;48.042;7.584;2022-12-07T15:23:47;3.60;99.90
26505;DHT22;19493;48.042;7.584;2022-12-07T15:26:13;3.50;99.90
26505;DHT22;19493;48.042;7.584;2022-12-07T15:28:39;3.30;99.90
26505;DHT22;19493;48.042;7.584;2022-12-07T15:31:14;3.30;99.90
26505;DHT22;19493;48.042;7.584;2022-12-07T15:33:40;3.20;99.90
26505;DHT22;19493;48.042;7.584;2022-12-07T15:36:06;3.10;99.90
26505;DHT22;19493;48.042;7.584;2022-12-07T15:38:32;3.00;99.90
26505;DHT22;19493;48.042;7.584;2022-12-07T15:40:58;3.00;99.90
26505;DHT22;19493;48.042;7.584;2022-12-07T15:43:23;2.90;99.90
26505;DHT22;19493;48.042;7.584;2022-12-07T15:46:08;2.80;99.90
26505;DHT22;19493;48.042;7.584;2022-12-07T15:48:33;2.80;99.90
26505;DHT22;19493;48.042;7.584;2022-12-07T15:51:04;2.80;99.90
26505;DHT22;19493;48.042;7.584;2022-12-07T15:53:29;2.70;99.90
26505;DHT22;19493;48.042;7.584;2022-12-07T15:55:55;2.60;99.90
26505;DHT22;19493;48.042;7.584;2022-12-07T15:58:21;2.60;99.90
26505;DHT22;19493;48.042;7.584;2022-12-07T16:00:46;2.60;99.90
26505;DHT22;19493;48.042;7.584;2022-12-07T16:03:13;2.60;99.90
26505;DHT22;19493;48.042;7.584;2022-12-07T16:05:39;2.60;99.90
26505;DHT22;19493;48.042;7.584;2022-12-07T16:08:04;2.60;99.90
26505;DHT22;19493;48.042;7.584;2022-12-07T16:10:30;2.50;99.90
26505;DHT22;19493;48.042;7.584;2022-12-07T16:12:55;2.50;99.90
26505;DHT22;19493;48.042;7.584;2022-12-07T16:15:21;2.40;99.90
26505;DHT22;19493;48.042;7.584;2022-12-07T16:17:47;2.40;99.90
26505;DHT22;19493;48.042;7.584;2022-12-07T16:20:12;2.20;99.90
26505;DHT22;19493;48.042;7.584;2022-12-07T16:22:38;2.20;99.90
26505;DHT22;19493;48.042;7.584;2022-12-07T16:25:03;2.10;99.90
26505;DHT22;19493;48.042;7.584;2022-12-07T16:27:29;2.00;99.90
26505;DHT22;19493;48.042;7.584;2022-12-07T16:29:55;2.00;99.90
26505;DHT22;19493;48.042;7.584;2022-12-07T16:32:21;2.00;99.90
26505;DHT22;19493;48.042;7.584;2022-12-07T16:34:46;1.90;99.90
26505;DHT22;19493;48.042;7.584;2022-12-07T16:37:12;1.80;99.90
26505;DHT22;19493;48.042;7.584;2022-12-07T16:39:37;1.70;99.90
26505;DHT22;19493;48.042;7.584;2022-12-07T16:42:03;1.60;99.90
26505;DHT22;19493;48.042;7.584;2022-12-07T16:44:29;1.60;99.90
26505;DHT22;19493;48.042;7.584;2022-12-07T16:46:55;1.60;99.90
26505;DHT22;19493;48.042;7.584;2022-12-07T16:49:21;1.60;99.90
26505;DHT22;19493;48.042;7.584;2022-12-07T16:51:49;1.70;99.90
26505;DHT22;19493;48.042;7.584;2022-12-07T16:54:15;1.80;99.90
26505;DHT22;19493;48.042;7.584;2022-12-07T16:56:41;1.80;99.90
26505;DHT22;19493;48.042;7.584;2022-12-07T16:59:07;1.80;99.90
26505;DHT22;19493;48.042;7.584;2022-12-07T17:01:32;1.80;99.90
26505;DHT22;19493;48.042;7.584;2022-12-07T17:04:00;1.90;99.90
26505;DHT22;19493;48.042;7.584;2022-12-07T17:06:27;2.00;99.90
26505;DHT22;19493;48.042;7.584;2022-12-07T17:08:53;2.20;99.90
26505;DHT22;19493;48.042;7.584;2022-12-07T17:11:37;2.30;99.90
26505;DHT22;19493;48.042;7.584;2022-12-07T17:14:02;2.30;99.90
26505;DHT22;19493;48.042;7.584;2022-12-07T17:16:47;2.40;99.90
26505;DHT22;19493;48.042;7.584;2022-12-07T17:19:15;2.50;99.90
26505;DHT22;19493;48.042;7.584;2022-12-07T17:21:41;2.50;99.90
26505;DHT22;19493;48.042;7.584;2022-12-07T17:24:08;2.50;99.90
26505;DHT22;19493;48.042;7.584;2022-12-07T17:26:35;2.50;99.90
26505;DHT22;19493;48.042;7.584;2022-12-07T17:29:00;2.50;99.90
26505;DHT22;19493;48.042;7.584;2022-12-07T17:31:26;2.40;99.90
26505;DHT22;19493;48.042;7.584;2022-12-07T17:33:52;2.40;99.90
26505;DHT22;19493;48.042;7.584;2022-12-07T17:36:20;2.40;99.90
26505;DHT22;19493;48.042;7.584;2022-12-07T17:38:46;2.40;99.90
26505;DHT22;19493;48.042;7.584;2022-12-07T17:41:16;2.40;99.90
26505;DHT22;19493;48.042;7.584;2022-12-07T17:44:02;2.50;99.90
26505;DHT22;19493;48.042;7.584;2022-12-07T17:46:27;2.50;99.90
26505;DHT22;19493;48.042;7.584;2022-12-07T17:48:54;2.50;99.90
26505;DHT22;19493;48.042;7.584;2022-12-07T17:51:19;2.60;99.90
26505;DHT22;19493;48.042;7.584;2022-12-07T17:54:04;2.60;99.90
26505;DHT22;19493;48.042;7.584;2022-12-07T17:56:29;2.60;99.90
26505;DHT22;19493;48.042;7.584;2022-12-07T17:58:55;2.70;99.90
26505;DHT22;19493;48.042;7.584;2022-12-07T18:01:20;2.70;99.90
26505;DHT22;19493;48.042;7.584;2022-12-07T18:03:46;2.70;99.90
26505;DHT22;19493;48.042;7.584;2022-12-07T18:06:11;2.80;99.90